sensor_id;sensor_type;location;lat;lon;timestamp;P1;durP1;ratioP1;P2;durP2;ratioP2
34896;SDS011;43407;51.828;-2.298;2023-04-27T00:00:43;6.53;;;4.15;;
34896;SDS011;43407;51.828;-2.298;2023-04-27T00:03:09;5.47;;;3.90;;
34896;SDS011;43407;51.828;-2.298;2023-04-27T00:05:35;7.10;;;4.35;;
34896;SDS011;43407;51.828;-2.298;2023-04-27T00:08:01;8.70;;;4.32;;
34896;SDS011;43407;51.828;-2.298;2023-04-27T00:10:27;7.47;;;4.47;;
34896;SDS011;43407;51.828;-2.298;2023-04-27T00:12:52;5.47;;;3.60;;
34896;SDS011;43407;51.828;-2.298;2023-04-27T00:15:18;8.27;;;4.68;;
34896;SDS011;43407;51.828;-2.298;2023-04-27T00:17:43;7.22;;;5.07;;
34896;SDS011;43407;51.828;-2.298;2023-04-27T00:20:09;8.00;;;4.47;;
34896;SDS011;43407;51.828;-2.298;2023-04-27T00:22:37;7.07;;;5.03;;
34896;SDS011;43407;51.828;-2.298;2023-04-27T00:25:03;8.07;;;5.30;;
34896;SDS011;43407;51.828;-2.298;2023-04-27T00:27:29;7.55;;;5.15;;
34896;SDS011;43407;51.828;-2.298;2023-04-27T00:29:55;6.20;;;5.00;;
34896;SDS011;43407;51.828;-2.298;2023-04-27T00:32:21;8.07;;;6.07;;
34896;SDS011;43407;51.828;-2.298;2023-04-27T00:34:46;6.43;;;4.97;;
34896;SDS011;43407;51.828;-2.298;2023-04-27T00:37:12;6.32;;;5.15;;
34896;SDS011;43407;51.828;-2.298;2023-04-27T00:39:37;8.07;;;4.75;;
34896;SDS011;43407;51.828;-2.298;2023-04-27T00:42:03;6.18;;;5.50;;
34896;SDS011;43407;51.828;-2.298;2023-04-27T00:44:29;7.18;;;4.68;;
34896;SDS011;43407;51.828;-2.298;2023-04-27T00:46:54;7.38;;;5.28;;
34896;SDS011;43407;51.828;-2.298;2023-04-27T00:49:20;9.57;;;4.90;;
34896;SDS011;43407;51.828;-2.298;2023-04-27T00:51:49;7.05;;;4.88;;
34896;SDS011;43407;51.828;-2.298;2023-04-27T00:54:16;13.02;;;5.45;;
34896;SDS011;43407;51.828;-2.298;2023-04-27T00:56:43;8.68;;;5.22;;
34896;SDS011;43407;51.828;-2.298;2023-04-27T00:59:10;7.57;;;5.47;;
34896;SDS011;43407;51.828;-2.298;2023-04-27T01:01:35;7.00;;;4.97;;
34896;SDS011;43407;51.828;-2.298;2023-04-27T01:04:01;6.05;;;5.03;;
34896;SDS011;43407;51.828;-2.298;2023-04-27T01:06:26;10.48;;;6.05;;
34896;SDS011;43407;51.828;-2.298;2023-04-27T01:08:53;7.13;;;5.47;;
34896;SDS011;43407;51.828;-2.298;2023-04-27T01:11:19;10.75;;;6.15;;
34896;SDS011;43407;51.828;-2.298;2023-04-27T01:13:45;6.60;;;5.28;;
34896;SDS011;43407;51.828;-2.298;2023-04-27T01:16:11;8.38;;;6.30;;
34896;SDS011;43407;51.828;-2.298;2023-04-27T01:18:36;6.10;;;5.40;;
34896;SDS011;43407;51.828;-2.298;2023-04-27T01:21:04;8.93;;;5.50;;
34896;SDS011;43407;51.828;-2.298;2023-04-27T01:23:31;6.90;;;5.10;;
34896;SDS011;43407;51.828;-2.298;2023-04-27T01:25:56;7.90;;;5.85;;
34896;SDS011;43407;51.828;-2.298;2023-04-27T01:28:22;7.15;;;5.40;;
34896;SDS011;43407;51.828;-2.298;2023-04-27T01:30:47;7.15;;;5.78;;
34896;SDS011;43407;51.828;-2.298;2023-04-27T01:33:13;9.02;;;5.78;;
34896;SDS011;43407;51.828;-2.298;2023-04-27T01:35:38;9.50;;;5.63;;
34896;SDS011;43407;51.828;-2.298;2023-04-27T01:38:04;5.68;;;4.85;;
34896;SDS011;43407;51.828;-2.298;2023-04-27T01:40:30;7.65;;;5.60;;
34896;SDS011;43407;51.828;-2.298;2023-04-27T01:42:55;7.05;;;5.50;;
34896;SDS011;43407;51.828;-2.298;2023-04-27T01:45:21;7.55;;;5.57;;
34896;SDS011;43407;51.828;-2.298;2023-04-27T01:47:46;11.23;;;5.82;;
34896;SDS011;43407;51.828;-2.298;2023-04-27T01:50:14;10.00;;;5.82;;
34896;SDS011;43407;51.828;-2.298;2023-04-27T01:52:40;7.75;;;5.65;;
34896;SDS011;43407;51.828;-2.298;2023-04-27T01:55:05;8.18;;;5.82;;
34896;SDS011;43407;51.828;-2.298;2023-04-27T01:57:31;6.65;;;5.55;;
34896;SDS011;43407;51.828;-2.298;2023-04-27T01:59:57;7.60;;;5.57;;
34896;SDS011;43407;51.828;-2.298;2023-04-27T02:02:22;6.47;;;5.75;;
34896;SDS011;43407;51.828;-2.298;2023-04-27T02:04:48;6.63;;;5.22;;
34896;SDS011;43407;51.828;-2.298;2023-04-27T02:07:13;9.77;;;5.78;;
34896;SDS011;43407;51.828;-2.298;2023-04-27T02:09:39;7.22;;;5.47;;
34896;SDS011;43407;51.828;-2.298;2023-04-27T02:12:04;7.05;;;5.68;;
34896;SDS011;43407;51.828;-2.298;2023-04-27T02:14:30;8.13;;;5.75;;
34896;SDS011;43407;51.828;-2.298;2023-04-27T02:16:56;7.55;;;6.00;;
34896;SDS011;43407;51.828;-2.298;2023-04-27T02:19:21;8.73;;;6.00;;
34896;SDS011;43407;51.828;-2.298;2023-04-27T02:21:47;9.02;;;5.82;;
34896;SDS011;43407;51.828;-2.298;2023-04-27T02:24:12;7.82;;;5.70;;
34896;SDS011;43407;51.828;-2.298;2023-04-27T02:26:38;7.18;;;5.32;;
34896;SDS011;43407;51.828;-2.298;2023-04-27T02:29:03;7.88;;;5.15;;
34896;SDS011;43407;51.828;-2.298;2023-04-27T02:31:29;7.13;;;5.68;;
34896;SDS011;43407;51.828;-2.298;2023-04-27T02:33:54;7.93;;;6.07;;
34896;SDS011;43407;51.828;-2.298;2023-04-27T02:36:20;7.05;;;4.90;;
34896;SDS011;43407;51.828;-2.298;2023-04-27T02:38:46;6.82;;;5.43;;
34896;SDS011;43407;51.828;-2.298;2023-04-27T02:41:11;10.20;;;5.88;;
34896;SDS011;43407;51.828;-2.298;2023-04-27T02:43:37;6.95;;;5.43;;
34896;SDS011;43407;51.828;-2.298;2023-04-27T02:46:03;6.25;;;4.80;;
34896;SDS011;43407;51.828;-2.298;2023-04-27T02:48:29;6.72;;;5.30;;
34896;SDS011;43407;51.828;-2.298;2023-04-27T02:50:55;9.25;;;4.93;;
34896;SDS011;43407;51.828;-2.298;2023-04-27T02:53:21;7.45;;;5.40;;
34896;SDS011;43407;51.828;-2.298;2023-04-27T02:55:46;7.50;;;5.30;;
34896;SDS011;43407;51.828;-2.298;2023-04-27T02:58:12;5.82;;;5.00;;
34896;SDS011;43407;51.828;-2.298;2023-04-27T03:00:38;7.35;;;5.07;;
34896;SDS011;43407;51.828;-2.298;2023-04-27T03:03:05;8.20;;;6.07;;
34896;SDS011;43407;51.828;-2.298;2023-04-27T03:05:31;6.15;;;4.10;;
34896;SDS011;43407;51.828;-2.298;2023-04-27T03:07:57;8.93;;;5.32;;
34896;SDS011;43407;51.828;-2.298;2023-04-27T03:10:22;6.05;;;4.93;;
34896;SDS011;43407;51.828;-2.298;2023-04-27T03:12:48;8.02;;;4.47;;
34896;SDS011;43407;51.828;-2.298;2023-04-27T03:15:14;6.05;;;4.47;;
34896;SDS011;43407;51.828;-2.298;2023-04-27T03:17:39;8.13;;;4.18;;
34896;SDS011;43407;51.828;-2.298;2023-04-27T03:20:05;7.00;;;4.28;;
34896;SDS011;43407;51.828;-2.298;2023-04-27T03:22:33;5.82;;;4.20;;
34896;SDS011;43407;51.828;-2.298;2023-04-27T03:25:02;5.85;;;4.32;;
34896;SDS011;43407;51.828;-2.298;2023-04-27T03:27:28;5.25;;;4.13;;
34896;SDS011;43407;51.828;-2.298;2023-04-27T03:29:54;5.30;;;4.28;;
34896;SDS011;43407;51.828;-2.298;2023-04-27T03:32:19;6.60;;;4.45;;
34896;SDS011;43407;51.828;-2.298;2023-04-27T03:34:45;8.52;;;5.18;;
34896;SDS011;43407;51.828;-2.298;2023-04-27T03:37:11;8.55;;;5.60;;
34896;SDS011;43407;51.828;-2.298;2023-04-27T03:39:36;9.85;;;4.85;;
34896;SDS011;43407;51.828;-2.298;2023-04-27T03:42:02;10.57;;;5.15;;
34896;SDS011;43407;51.828;-2.298;2023-04-27T03:44:28;14.25;;;6.00;;
34896;SDS011;43407;51.828;-2.298;2023-04-27T03:46:55;8.65;;;5.43;;
34896;SDS011;43407;51.828;-2.298;2023-04-27T03:49:21;5.88;;;5.28;;
34896;SDS011;43407;51.828;-2.298;2023-04-27T03:51:47;7.68;;;5.43;;
34896;SDS011;43407;51.828;-2.298;2023-04-27T03:54:12;12.35;;;6.32;;
34896;SDS011;43407;51.828;-2.298;2023-04-27T03:56:39;11.25;;;6.00;;
34896;SDS011;43407;51.828;-2.298;2023-04-27T03:59:04;10.48;;;5.78;;
34896;SDS011;43407;51.828;-2.298;2023-04-27T04:01:30;11.05;;;6.57;;
34896;SDS011;43407;51.828;-2.298;2023-04-27T04:03:56;7.35;;;5.25;;
34896;SDS011;43407;51.828;-2.298;2023-04-27T04:06:21;10.35;;;6.32;;
34896;SDS011;43407;51.828;-2.298;2023-04-27T04:08:47;11.05;;;6.38;;
34896;SDS011;43407;51.828;-2.298;2023-04-27T04:11:12;10.50;;;6.30;;
34896;SDS011;43407;51.828;-2.298;2023-04-27T04:13:38;14.15;;;6.78;;
34896;SDS011;43407;51.828;-2.298;2023-04-27T04:16:04;11.32;;;7.20;;
34896;SDS011;43407;51.828;-2.298;2023-04-27T04:18:32;9.52;;;6.97;;
34896;SDS011;43407;51.828;-2.298;2023-04-27T04:20:58;8.98;;;6.90;;
34896;SDS011;43407;51.828;-2.298;2023-04-27T04:23:23;12.50;;;7.15;;
34896;SDS011;43407;51.828;-2.298;2023-04-27T04:25:49;9.25;;;5.72;;
34896;SDS011;43407;51.828;-2.298;2023-04-27T04:28:15;9.50;;;6.25;;
34896;SDS011;43407;51.828;-2.298;2023-04-27T04:30:40;12.00;;;6.38;;
34896;SDS011;43407;51.828;-2.298;2023-04-27T04:33:07;12.05;;;6.47;;
34896;SDS011;43407;51.828;-2.298;2023-04-27T04:35:36;7.88;;;6.00;;
34896;SDS011;43407;51.828;-2.298;2023-04-27T04:38:02;6.45;;;5.57;;
34896;SDS011;43407;51.828;-2.298;2023-04-27T04:40:27;9.30;;;6.00;;
34896;SDS011;43407;51.828;-2.298;2023-04-27T04:42:53;8.02;;;5.30;;
34896;SDS011;43407;51.828;-2.298;2023-04-27T04:45:18;7.25;;;4.95;;
34896;SDS011;43407;51.828;-2.298;2023-04-27T04:47:44;9.10;;;6.28;;
34896;SDS011;43407;51.828;-2.298;2023-04-27T04:50:11;8.98;;;6.47;;
34896;SDS011;43407;51.828;-2.298;2023-04-27T04:52:37;15.15;;;9.40;;
34896;SDS011;43407;51.828;-2.298;2023-04-27T04:55:03;12.02;;;7.78;;
34896;SDS011;43407;51.828;-2.298;2023-04-27T04:57:29;11.65;;;7.95;;
34896;SDS011;43407;51.828;-2.298;2023-04-27T04:59:55;9.90;;;7.82;;
34896;SDS011;43407;51.828;-2.298;2023-04-27T05:02:20;11.43;;;8.20;;
34896;SDS011;43407;51.828;-2.298;2023-04-27T05:04:46;9.85;;;8.15;;
34896;SDS011;43407;51.828;-2.298;2023-04-27T05:07:12;12.23;;;8.00;;
34896;SDS011;43407;51.828;-2.298;2023-04-27T05:09:37;8.95;;;6.93;;
34896;SDS011;43407;51.828;-2.298;2023-04-27T05:12:03;10.30;;;6.70;;
34896;SDS011;43407;51.828;-2.298;2023-04-27T05:14:29;9.07;;;7.15;;
34896;SDS011;43407;51.828;-2.298;2023-04-27T05:16:54;7.00;;;5.60;;
34896;SDS011;43407;51.828;-2.298;2023-04-27T05:19:20;10.43;;;6.70;;
34896;SDS011;43407;51.828;-2.298;2023-04-27T05:21:45;7.50;;;5.95;;
34896;SDS011;43407;51.828;-2.298;2023-04-27T05:24:11;6.50;;;5.22;;
34896;SDS011;43407;51.828;-2.298;2023-04-27T05:26:37;11.27;;;7.68;;
34896;SDS011;43407;51.828;-2.298;2023-04-27T05:29:03;12.52;;;8.48;;
34896;SDS011;43407;51.828;-2.298;2023-04-27T05:31:29;19.38;;;8.27;;
34896;SDS011;43407;51.828;-2.298;2023-04-27T05:33:54;12.15;;;8.20;;
34896;SDS011;43407;51.828;-2.298;2023-04-27T05:36:20;13.10;;;8.60;;
34896;SDS011;43407;51.828;-2.298;2023-04-27T05:38:45;12.27;;;8.32;;
34896;SDS011;43407;51.828;-2.298;2023-04-27T05:41:11;12.70;;;8.63;;
34896;SDS011;43407;51.828;-2.298;2023-04-27T05:43:36;12.70;;;8.70;;
34896;SDS011;43407;51.828;-2.298;2023-04-27T05:46:02;16.70;;;10.45;;
34896;SDS011;43407;51.828;-2.298;2023-04-27T05:48:28;13.20;;;9.88;;
34896;SDS011;43407;51.828;-2.298;2023-04-27T05:51:01;15.43;;;10.65;;
34896;SDS011;43407;51.828;-2.298;2023-04-27T05:53:27;18.33;;;11.07;;
34896;SDS011;43407;51.828;-2.298;2023-04-27T05:55:53;17.92;;;11.40;;
34896;SDS011;43407;51.828;-2.298;2023-04-27T05:58:19;17.75;;;12.00;;
34896;SDS011;43407;51.828;-2.298;2023-04-27T06:00:44;21.65;;;11.70;;
34896;SDS011;43407;51.828;-2.298;2023-04-27T06:03:10;20.65;;;12.57;;
34896;SDS011;43407;51.828;-2.298;2023-04-27T06:05:35;20.00;;;12.10;;
34896;SDS011;43407;51.828;-2.298;2023-04-27T06:08:01;14.48;;;10.30;;
34896;SDS011;43407;51.828;-2.298;2023-04-27T06:10:27;11.90;;;9.40;;
34896;SDS011;43407;51.828;-2.298;2023-04-27T06:12:52;16.55;;;11.10;;
34896;SDS011;43407;51.828;-2.298;2023-04-27T06:15:18;16.55;;;11.02;;
34896;SDS011;43407;51.828;-2.298;2023-04-27T06:17:44;17.38;;;11.68;;
34896;SDS011;43407;51.828;-2.298;2023-04-27T06:20:10;20.58;;;12.18;;
34896;SDS011;43407;51.828;-2.298;2023-04-27T06:22:36;13.27;;;10.18;;
34896;SDS011;43407;51.828;-2.298;2023-04-27T06:25:02;17.13;;;11.38;;
34896;SDS011;43407;51.828;-2.298;2023-04-27T06:27:29;16.10;;;11.75;;
34896;SDS011;43407;51.828;-2.298;2023-04-27T06:29:54;16.30;;;11.57;;
34896;SDS011;43407;51.828;-2.298;2023-04-27T06:32:20;20.00;;;11.02;;
34896;SDS011;43407;51.828;-2.298;2023-04-27T06:34:46;19.63;;;12.32;;
34896;SDS011;43407;51.828;-2.298;2023-04-27T06:37:11;16.02;;;11.23;;
34896;SDS011;43407;51.828;-2.298;2023-04-27T06:39:39;15.48;;;10.77;;
34896;SDS011;43407;51.828;-2.298;2023-04-27T06:42:04;15.00;;;10.38;;
34896;SDS011;43407;51.828;-2.298;2023-04-27T06:44:30;15.32;;;10.68;;
34896;SDS011;43407;51.828;-2.298;2023-04-27T06:46:55;17.75;;;10.48;;
34896;SDS011;43407;51.828;-2.298;2023-04-27T06:49:21;13.15;;;10.13;;
34896;SDS011;43407;51.828;-2.298;2023-04-27T06:51:47;17.75;;;11.32;;
34896;SDS011;43407;51.828;-2.298;2023-04-27T06:54:12;16.50;;;10.63;;
34896;SDS011;43407;51.828;-2.298;2023-04-27T06:56:38;16.77;;;10.55;;
34896;SDS011;43407;51.828;-2.298;2023-04-27T06:59:03;15.38;;;9.93;;
34896;SDS011;43407;51.828;-2.298;2023-04-27T07:01:29;13.57;;;9.50;;
34896;SDS011;43407;51.828;-2.298;2023-04-27T07:03:55;13.10;;;9.40;;
34896;SDS011;43407;51.828;-2.298;2023-04-27T07:06:21;14.35;;;10.35;;
34896;SDS011;43407;51.828;-2.298;2023-04-27T07:08:47;13.75;;;9.85;;
34896;SDS011;43407;51.828;-2.298;2023-04-27T07:11:13;17.98;;;10.80;;
34896;SDS011;43407;51.828;-2.298;2023-04-27T07:13:40;16.60;;;9.93;;
34896;SDS011;43407;51.828;-2.298;2023-04-27T07:16:05;13.05;;;10.10;;
34896;SDS011;43407;51.828;-2.298;2023-04-27T07:18:31;19.10;;;10.52;;
34896;SDS011;43407;51.828;-2.298;2023-04-27T07:20:57;16.27;;;10.45;;
34896;SDS011;43407;51.828;-2.298;2023-04-27T07:23:22;20.38;;;11.35;;
34896;SDS011;43407;51.828;-2.298;2023-04-27T07:25:48;17.20;;;10.27;;
34896;SDS011;43407;51.828;-2.298;2023-04-27T07:28:14;12.38;;;9.35;;
34896;SDS011;43407;51.828;-2.298;2023-04-27T07:30:40;18.20;;;11.45;;
34896;SDS011;43407;51.828;-2.298;2023-04-27T07:33:06;13.23;;;10.05;;
34896;SDS011;43407;51.828;-2.298;2023-04-27T07:35:33;16.85;;;10.00;;
34896;SDS011;43407;51.828;-2.298;2023-04-27T07:38:00;18.13;;;12.23;;
34896;SDS011;43407;51.828;-2.298;2023-04-27T07:40:28;11.77;;;9.82;;
34896;SDS011;43407;51.828;-2.298;2023-04-27T07:42:54;19.13;;;13.38;;
34896;SDS011;43407;51.828;-2.298;2023-04-27T07:45:20;18.95;;;11.25;;
34896;SDS011;43407;51.828;-2.298;2023-04-27T07:47:46;14.15;;;10.63;;
34896;SDS011;43407;51.828;-2.298;2023-04-27T07:50:12;17.13;;;12.30;;
34896;SDS011;43407;51.828;-2.298;2023-04-27T07:52:41;17.80;;;12.00;;
34896;SDS011;43407;51.828;-2.298;2023-04-27T07:55:07;17.30;;;11.27;;
34896;SDS011;43407;51.828;-2.298;2023-04-27T07:57:34;17.08;;;11.35;;
34896;SDS011;43407;51.828;-2.298;2023-04-27T07:59:59;15.77;;;11.70;;
34896;SDS011;43407;51.828;-2.298;2023-04-27T08:02:25;19.33;;;11.32;;
34896;SDS011;43407;51.828;-2.298;2023-04-27T08:04:55;20.65;;;12.45;;
34896;SDS011;43407;51.828;-2.298;2023-04-27T08:07:21;18.92;;;12.82;;
34896;SDS011;43407;51.828;-2.298;2023-04-27T08:09:49;18.75;;;12.40;;
34896;SDS011;43407;51.828;-2.298;2023-04-27T08:12:16;18.08;;;12.80;;
34896;SDS011;43407;51.828;-2.298;2023-04-27T08:14:41;19.65;;;13.68;;
34896;SDS011;43407;51.828;-2.298;2023-04-27T08:17:07;19.05;;;12.20;;
34896;SDS011;43407;51.828;-2.298;2023-04-27T08:19:33;19.60;;;12.68;;
34896;SDS011;43407;51.828;-2.298;2023-04-27T08:21:59;18.85;;;12.75;;
34896;SDS011;43407;51.828;-2.298;2023-04-27T08:24:25;20.00;;;13.48;;
34896;SDS011;43407;51.828;-2.298;2023-04-27T08:26:50;19.40;;;12.75;;
34896;SDS011;43407;51.828;-2.298;2023-04-27T08:29:16;17.90;;;12.48;;
34896;SDS011;43407;51.828;-2.298;2023-04-27T08:31:42;15.27;;;10.45;;
34896;SDS011;43407;51.828;-2.298;2023-04-27T08:34:07;19.65;;;12.50;;
34896;SDS011;43407;51.828;-2.298;2023-04-27T08:36:33;19.02;;;12.10;;
34896;SDS011;43407;51.828;-2.298;2023-04-27T08:38:59;17.35;;;13.07;;
34896;SDS011;43407;51.828;-2.298;2023-04-27T08:41:24;19.25;;;11.52;;
34896;SDS011;43407;51.828;-2.298;2023-04-27T08:43:50;15.90;;;12.48;;
34896;SDS011;43407;51.828;-2.298;2023-04-27T08:46:20;19.23;;;11.10;;
34896;SDS011;43407;51.828;-2.298;2023-04-27T08:48:51;19.00;;;14.10;;
34896;SDS011;43407;51.828;-2.298;2023-04-27T08:51:18;16.65;;;12.98;;
34896;SDS011;43407;51.828;-2.298;2023-04-27T08:53:54;19.27;;;13.90;;
34896;SDS011;43407;51.828;-2.298;2023-04-27T08:56:25;17.63;;;13.80;;
34896;SDS011;43407;51.828;-2.298;2023-04-27T08:58:52;17.95;;;13.00;;
34896;SDS011;43407;51.828;-2.298;2023-04-27T09:01:18;16.83;;;13.10;;
34896;SDS011;43407;51.828;-2.298;2023-04-27T09:03:44;18.67;;;12.52;;
34896;SDS011;43407;51.828;-2.298;2023-04-27T09:06:13;18.55;;;11.70;;
34896;SDS011;43407;51.828;-2.298;2023-04-27T09:08:46;17.80;;;12.82;;
34896;SDS011;43407;51.828;-2.298;2023-04-27T09:11:13;19.38;;;13.57;;
34896;SDS011;43407;51.828;-2.298;2023-04-27T09:13:40;16.38;;;11.32;;
34896;SDS011;43407;51.828;-2.298;2023-04-27T09:16:09;16.27;;;13.07;;
34896;SDS011;43407;51.828;-2.298;2023-04-27T09:18:39;16.50;;;12.90;;
34896;SDS011;43407;51.828;-2.298;2023-04-27T09:21:06;17.10;;;12.63;;
34896;SDS011;43407;51.828;-2.298;2023-04-27T09:23:32;18.58;;;14.88;;
34896;SDS011;43407;51.828;-2.298;2023-04-27T09:26:03;16.70;;;12.07;;
34896;SDS011;43407;51.828;-2.298;2023-04-27T09:28:32;15.27;;;12.10;;
34896;SDS011;43407;51.828;-2.298;2023-04-27T09:31:03;16.63;;;12.63;;
34896;SDS011;43407;51.828;-2.298;2023-04-27T09:33:30;14.52;;;10.50;;
34896;SDS011;43407;51.828;-2.298;2023-04-27T09:35:57;17.20;;;12.02;;
34896;SDS011;43407;51.828;-2.298;2023-04-27T09:38:25;16.23;;;11.30;;
34896;SDS011;43407;51.828;-2.298;2023-04-27T09:40:51;14.40;;;11.75;;
34896;SDS011;43407;51.828;-2.298;2023-04-27T09:43:17;15.00;;;12.32;;
34896;SDS011;43407;51.828;-2.298;2023-04-27T09:45:43;15.85;;;11.20;;
34896;SDS011;43407;51.828;-2.298;2023-04-27T09:48:09;19.48;;;12.93;;
34896;SDS011;43407;51.828;-2.298;2023-04-27T09:50:38;18.40;;;13.75;;
34896;SDS011;43407;51.828;-2.298;2023-04-27T09:53:05;17.48;;;12.52;;
34896;SDS011;43407;51.828;-2.298;2023-04-27T09:55:40;17.83;;;13.90;;
34896;SDS011;43407;51.828;-2.298;2023-04-27T10:09:03;14.55;;;11.38;;
34896;SDS011;43407;51.828;-2.298;2023-04-27T10:11:40;10.77;;;9.32;;
34896;SDS011;43407;51.828;-2.298;2023-04-27T10:14:16;14.27;;;10.52;;
34896;SDS011;43407;51.828;-2.298;2023-04-27T10:16:43;15.50;;;11.93;;
34896;SDS011;43407;51.828;-2.298;2023-04-27T10:19:12;15.75;;;10.90;;
34896;SDS011;43407;51.828;-2.298;2023-04-27T10:21:54;15.50;;;11.68;;
34896;SDS011;43407;51.828;-2.298;2023-04-27T10:27:09;17.13;;;13.15;;
34896;SDS011;43407;51.828;-2.298;2023-04-27T10:32:05;18.80;;;13.45;;
34896;SDS011;43407;51.828;-2.298;2023-04-27T10:35:01;16.15;;;12.25;;
34896;SDS011;43407;51.828;-2.298;2023-04-27T10:37:42;18.05;;;12.35;;
34896;SDS011;43407;51.828;-2.298;2023-04-27T10:40:08;15.95;;;11.43;;
34896;SDS011;43407;51.828;-2.298;2023-04-27T10:42:38;16.25;;;11.48;;
34896;SDS011;43407;51.828;-2.298;2023-04-27T10:45:05;15.57;;;11.85;;
34896;SDS011;43407;51.828;-2.298;2023-04-27T10:47:38;17.23;;;13.20;;
34896;SDS011;43407;51.828;-2.298;2023-04-27T10:50:06;14.93;;;11.68;;
34896;SDS011;43407;51.828;-2.298;2023-04-27T10:52:32;16.70;;;11.98;;
34896;SDS011;43407;51.828;-2.298;2023-04-27T10:55:03;17.33;;;12.88;;
34896;SDS011;43407;51.828;-2.298;2023-04-27T10:57:44;18.23;;;11.80;;
34896;SDS011;43407;51.828;-2.298;2023-04-27T11:00:14;19.77;;;11.68;;
34896;SDS011;43407;51.828;-2.298;2023-04-27T11:02:43;13.52;;;11.05;;
34896;SDS011;43407;51.828;-2.298;2023-04-27T11:05:18;13.35;;;9.48;;
34896;SDS011;43407;51.828;-2.298;2023-04-27T11:07:44;10.50;;;7.03;;
34896;SDS011;43407;51.828;-2.298;2023-04-27T11:10:16;18.00;;;11.25;;
34896;SDS011;43407;51.828;-2.298;2023-04-27T11:12:42;18.35;;;11.23;;
34896;SDS011;43407;51.828;-2.298;2023-04-27T11:15:08;17.33;;;12.55;;
34896;SDS011;43407;51.828;-2.298;2023-04-27T11:17:34;16.40;;;12.07;;
34896;SDS011;43407;51.828;-2.298;2023-04-27T11:19:59;18.75;;;12.20;;
34896;SDS011;43407;51.828;-2.298;2023-04-27T11:22:25;15.65;;;11.23;;
34896;SDS011;43407;51.828;-2.298;2023-04-27T11:24:51;18.10;;;10.18;;
34896;SDS011;43407;51.828;-2.298;2023-04-27T11:27:17;15.00;;;10.40;;
34896;SDS011;43407;51.828;-2.298;2023-04-27T11:29:43;12.77;;;10.13;;
34896;SDS011;43407;51.828;-2.298;2023-04-27T11:32:18;14.82;;;10.35;;
34896;SDS011;43407;51.828;-2.298;2023-04-27T11:34:48;15.55;;;9.93;;
34896;SDS011;43407;51.828;-2.298;2023-04-27T11:37:19;18.90;;;11.40;;
34896;SDS011;43407;51.828;-2.298;2023-04-27T11:39:49;16.65;;;13.13;;
34896;SDS011;43407;51.828;-2.298;2023-04-27T11:42:22;21.77;;;14.77;;
34896;SDS011;43407;51.828;-2.298;2023-04-27T11:44:52;16.17;;;12.23;;
34896;SDS011;43407;51.828;-2.298;2023-04-27T11:47:19;14.95;;;11.05;;
34896;SDS011;43407;51.828;-2.298;2023-04-27T11:50:05;13.82;;;11.77;;
34896;SDS011;43407;51.828;-2.298;2023-04-27T11:52:32;18.83;;;13.05;;
34896;SDS011;43407;51.828;-2.298;2023-04-27T11:54:59;16.27;;;13.35;;
34896;SDS011;43407;51.828;-2.298;2023-04-27T11:57:26;20.60;;;12.52;;
34896;SDS011;43407;51.828;-2.298;2023-04-27T11:59:59;16.77;;;11.83;;
34896;SDS011;43407;51.828;-2.298;2023-04-27T12:02:26;15.07;;;12.02;;
34896;SDS011;43407;51.828;-2.298;2023-04-27T12:04:57;21.15;;;14.23;;
34896;SDS011;43407;51.828;-2.298;2023-04-27T12:07:23;17.27;;;12.73;;
34896;SDS011;43407;51.828;-2.298;2023-04-27T12:09:49;17.38;;;14.05;;
34896;SDS011;43407;51.828;-2.298;2023-04-27T12:12:14;19.05;;;12.10;;
34896;SDS011;43407;51.828;-2.298;2023-04-27T12:14:45;21.10;;;13.93;;
34896;SDS011;43407;51.828;-2.298;2023-04-27T12:17:10;14.63;;;11.73;;
34896;SDS011;43407;51.828;-2.298;2023-04-27T12:19:36;21.55;;;13.35;;
34896;SDS011;43407;51.828;-2.298;2023-04-27T12:22:02;16.05;;;12.75;;
34896;SDS011;43407;51.828;-2.298;2023-04-27T12:24:28;17.92;;;12.88;;
34896;SDS011;43407;51.828;-2.298;2023-04-27T12:27:03;16.83;;;11.34;;
34896;SDS011;43407;51.828;-2.298;2023-04-27T12:29:29;14.90;;;11.50;;
34896;SDS011;43407;51.828;-2.298;2023-04-27T12:31:57;22.15;;;13.43;;
34896;SDS011;43407;51.828;-2.298;2023-04-27T12:34:23;16.98;;;12.95;;
34896;SDS011;43407;51.828;-2.298;2023-04-27T12:36:48;20.25;;;14.02;;
34896;SDS011;43407;51.828;-2.298;2023-04-27T12:39:15;19.80;;;14.35;;
34896;SDS011;43407;51.828;-2.298;2023-04-27T12:41:42;19.17;;;14.85;;
34896;SDS011;43407;51.828;-2.298;2023-04-27T12:44:11;18.20;;;13.10;;
34896;SDS011;43407;51.828;-2.298;2023-04-27T12:46:37;17.23;;;12.65;;
34896;SDS011;43407;51.828;-2.298;2023-04-27T12:49:03;18.02;;;11.95;;
34896;SDS011;43407;51.828;-2.298;2023-04-27T12:51:30;14.85;;;11.98;;
34896;SDS011;43407;51.828;-2.298;2023-04-27T12:53:57;15.35;;;11.88;;
34896;SDS011;43407;51.828;-2.298;2023-04-27T12:56:22;16.55;;;11.55;;
34896;SDS011;43407;51.828;-2.298;2023-04-27T12:58:48;18.60;;;13.50;;
34896;SDS011;43407;51.828;-2.298;2023-04-27T13:01:14;21.92;;;14.85;;
34896;SDS011;43407;51.828;-2.298;2023-04-27T13:03:40;15.52;;;11.95;;
34896;SDS011;43407;51.828;-2.298;2023-04-27T13:06:06;22.02;;;13.45;;
34896;SDS011;43407;51.828;-2.298;2023-04-27T13:08:32;20.75;;;15.80;;
34896;SDS011;43407;51.828;-2.298;2023-04-27T13:10:59;15.75;;;13.07;;
34896;SDS011;43407;51.828;-2.298;2023-04-27T13:13:24;19.30;;;14.52;;
34896;SDS011;43407;51.828;-2.298;2023-04-27T13:15:50;14.73;;;13.18;;
34896;SDS011;43407;51.828;-2.298;2023-04-27T13:18:15;17.35;;;13.68;;
34896;SDS011;43407;51.828;-2.298;2023-04-27T13:20:41;19.13;;;14.10;;
34896;SDS011;43407;51.828;-2.298;2023-04-27T13:23:08;21.17;;;14.35;;
34896;SDS011;43407;51.828;-2.298;2023-04-27T13:25:33;17.67;;;13.38;;
34896;SDS011;43407;51.828;-2.298;2023-04-27T13:27:59;19.83;;;13.77;;
34896;SDS011;43407;51.828;-2.298;2023-04-27T13:30:25;23.33;;;15.95;;
34896;SDS011;43407;51.828;-2.298;2023-04-27T13:32:51;15.55;;;13.48;;
34896;SDS011;43407;51.828;-2.298;2023-04-27T13:35:17;20.13;;;16.13;;
34896;SDS011;43407;51.828;-2.298;2023-04-27T13:37:43;16.20;;;14.07;;
34896;SDS011;43407;51.828;-2.298;2023-04-27T13:40:09;17.08;;;13.70;;
34896;SDS011;43407;51.828;-2.298;2023-04-27T13:42:35;16.77;;;14.73;;
34896;SDS011;43407;51.828;-2.298;2023-04-27T13:45:02;20.17;;;15.40;;
34896;SDS011;43407;51.828;-2.298;2023-04-27T13:47:28;18.70;;;14.13;;
34896;SDS011;43407;51.828;-2.298;2023-04-27T13:50:04;17.92;;;14.18;;
34896;SDS011;43407;51.828;-2.298;2023-04-27T13:52:33;16.65;;;13.65;;
34896;SDS011;43407;51.828;-2.298;2023-04-27T13:55:00;18.27;;;14.27;;
34896;SDS011;43407;51.828;-2.298;2023-04-27T13:57:26;17.27;;;13.85;;
34896;SDS011;43407;51.828;-2.298;2023-04-27T13:59:52;19.27;;;15.27;;
34896;SDS011;43407;51.828;-2.298;2023-04-27T14:02:18;18.25;;;14.98;;
34896;SDS011;43407;51.828;-2.298;2023-04-27T14:04:43;20.00;;;14.73;;
34896;SDS011;43407;51.828;-2.298;2023-04-27T14:07:09;19.15;;;14.85;;
34896;SDS011;43407;51.828;-2.298;2023-04-27T14:09:35;18.17;;;14.45;;
34896;SDS011;43407;51.828;-2.298;2023-04-27T14:12:00;18.08;;;15.40;;
34896;SDS011;43407;51.828;-2.298;2023-04-27T14:14:26;19.55;;;15.45;;
34896;SDS011;43407;51.828;-2.298;2023-04-27T14:16:53;22.58;;;15.23;;
34896;SDS011;43407;51.828;-2.298;2023-04-27T14:19:19;17.60;;;14.80;;
34896;SDS011;43407;51.828;-2.298;2023-04-27T14:21:45;18.95;;;14.73;;
34896;SDS011;43407;51.828;-2.298;2023-04-27T14:24:11;14.98;;;13.40;;
34896;SDS011;43407;51.828;-2.298;2023-04-27T14:26:37;17.25;;;13.93;;
34896;SDS011;43407;51.828;-2.298;2023-04-27T14:29:03;17.70;;;14.00;;
34896;SDS011;43407;51.828;-2.298;2023-04-27T14:31:28;14.57;;;12.10;;